createdAt,value
2018-09-30T00:01:43.017Z,102036.12
2018-09-30T00:04:11.108Z,102036.70
2018-09-30T00:06:39.182Z,102034.81
2018-09-30T00:09:07.539Z,102028.59
2018-09-30T00:11:35.629Z,102024.45
2018-09-30T00:14:03.682Z,102029.11
2018-09-30T00:16:31.746Z,102024.45
2018-09-30T00:18:59.864Z,102015.82
2018-09-30T00:21:27.920Z,102021.50
2018-09-30T00:24:01.469Z,102013.97
2018-09-30T00:26:34.844Z,102008.38
2018-09-30T00:29:02.909Z,102004.00
2018-09-30T00:31:30.969Z,101998.37
2018-09-30T00:34:04.385Z,101985.73
2018-09-30T00:36:32.525Z,101979.10
2018-09-30T00:39:00.670Z,101979.42
2018-09-30T00:41:28.737Z,101984.91
2018-09-30T00:43:56.949Z,101974.72
2018-09-30T00:46:25.000Z,101971.70
2018-09-30T00:48:53.062Z,101972.72
2018-09-30T00:51:21.117Z,101966.73
2018-09-30T00:53:49.204Z,101971.61
2018-09-30T00:56:17.273Z,101970.64
2018-09-30T00:58:45.339Z,101969.52
2018-09-30T01:01:13.393Z,101967.39
2018-09-30T01:03:41.485Z,101971.67
2018-09-30T01:06:09.537Z,101957.39
2018-09-30T01:08:37.662Z,101959.06
2018-09-30T01:11:05.985Z,101957.95
2018-09-30T01:13:34.069Z,101961.27
2018-09-30T01:16:02.121Z,101962.34
2018-09-30T01:18:30.185Z,101958.56
2018-09-30T01:20:58.257Z,101949.89
2018-09-30T01:23:26.349Z,101956.17
2018-09-30T01:25:54.433Z,101952.28
2018-09-30T01:28:22.509Z,101951.78
2018-09-30T01:30:50.653Z,101947.24
2018-09-30T01:33:18.749Z,101946.86
2018-09-30T01:35:46.881Z,101947.19
2018-09-30T01:38:14.981Z,101942.27
2018-09-30T01:40:43.093Z,101938.79
2018-09-30T01:43:11.216Z,101937.76
2018-09-30T01:45:39.264Z,101934.87
2018-09-30T01:48:07.356Z,101939.53
2018-09-30T01:50:35.609Z,101932.27
2018-09-30T01:53:03.701Z,101931.95
2018-09-30T01:55:31.752Z,101922.19
2018-09-30T01:57:59.809Z,101919.35
2018-09-30T02:00:27.922Z,101923.78
2018-09-30T02:02:55.981Z,101915.20
2018-09-30T02:05:24.033Z,101909.38
2018-09-30T02:07:52.113Z,101901.50
2018-09-30T02:10:20.185Z,101898.39
2018-09-30T02:12:48.287Z,101897.19
2018-09-30T02:15:16.421Z,101892.68
2018-09-30T02:17:44.497Z,101886.87
2018-09-30T02:20:12.548Z,101888.91
2018-09-30T02:22:40.611Z,101886.52
2018-09-30T02:25:08.673Z,101884.31
2018-09-30T02:27:36.773Z,101880.33
2018-09-30T02:30:05.237Z,101882.16
2018-09-30T02:32:33.321Z,101875.98
2018-09-30T02:35:01.432Z,101874.78
2018-09-30T02:37:29.490Z,101874.23
2018-09-30T02:39:57.553Z,101872.11
2018-09-30T02:42:25.605Z,101866.95
2018-09-30T02:44:53.676Z,101859.23
2018-09-30T02:47:21.733Z,101852.62
2018-09-30T02:49:49.825Z,101847.27
2018-09-30T02:52:17.887Z,101847.27
2018-09-30T02:54:45.954Z,101842.11
2018-09-30T02:57:14.069Z,101833.30
2018-09-30T02:59:42.185Z,101833.80
2018-09-30T03:02:10.273Z,101829.33
2018-09-30T03:04:38.332Z,101824.11
2018-09-30T03:07:12.017Z,101826.44
2018-09-30T03:09:42.629Z,101824.05
2018-09-30T03:12:10.841Z,101829.09
2018-09-30T03:14:39.053Z,101828.91
2018-09-30T03:17:07.186Z,101826.70
2018-09-30T03:19:35.253Z,101827.76
2018-09-30T03:22:03.324Z,101820.84
2018-09-30T03:24:31.425Z,101818.83
2018-09-30T03:26:59.490Z,101816.30
2018-09-30T03:29:27.561Z,101819.34
2018-09-30T03:31:55.616Z,101815.74
2018-09-30T03:34:23.709Z,101813.13
2018-09-30T03:36:51.849Z,101804.31
2018-09-30T03:39:19.917Z,101799.03
2018-09-30T03:41:47.977Z,101800.47
2018-09-30T03:44:16.085Z,101789.02
2018-09-30T03:46:44.324Z,101793.94
2018-09-30T03:49:12.413Z,101791.42
2018-09-30T03:51:40.474Z,101785.45
2018-09-30T03:54:08.540Z,101779.03
2018-09-30T03:56:36.621Z,101773.55
2018-09-30T03:59:04.681Z,101771.14
2018-09-30T04:01:32.741Z,101761.78
2018-09-30T04:04:00.825Z,101766.25
2018-09-30T04:06:28.877Z,101761.92
2018-09-30T04:08:56.961Z,101768.64
2018-09-30T04:11:25.028Z,101760.33
2018-09-30T04:13:53.085Z,101762.74
2018-09-30T04:16:21.165Z,101768.28
2018-09-30T04:18:49.237Z,101761.59
2018-09-30T04:21:17.414Z,101760.92
2018-09-30T04:23:45.465Z,101757.03
2018-09-30T04:26:13.556Z,101751.67
2018-09-30T04:28:41.681Z,101749.84
2018-09-30T04:31:09.800Z,101748.39
2018-09-30T04:33:37.867Z,101746.83
2018-09-30T04:36:06.150Z,101742.86
2018-09-30T04:38:34.205Z,101742.98
2018-09-30T04:41:02.288Z,101741.55
2018-09-30T04:43:30.349Z,101738.22
2018-09-30T04:45:58.417Z,101741.72
2018-09-30T04:48:26.482Z,101732.86
2018-09-30T04:50:54.564Z,101730.36
2018-09-30T04:53:22.614Z,101726.77
2018-09-30T04:55:50.709Z,101734.63
2018-09-30T04:58:18.769Z,101733.30
2018-09-30T05:00:46.844Z,101730.80
2018-09-30T05:03:14.899Z,101731.36
2018-09-30T05:05:43.003Z,101721.44
2018-09-30T05:08:11.058Z,101724.26
2018-09-30T05:10:39.125Z,101721.23
2018-09-30T05:13:07.189Z,101724.26
2018-09-30T05:15:35.268Z,101722.05
2018-09-30T05:18:03.312Z,101708.60
2018-09-30T05:20:31.410Z,101715.93
2018-09-30T05:22:59.460Z,101715.55
2018-09-30T05:25:27.528Z,101712.22
2018-09-30T05:27:55.613Z,101707.39
2018-09-30T05:30:23.673Z,101699.97
2018-09-30T05:32:51.744Z,101700.09
2018-09-30T05:35:19.805Z,101699.64
2018-09-30T05:37:47.924Z,101694.52
2018-09-30T05:40:16.001Z,101691.52
2018-09-30T05:42:44.096Z,101686.23
2018-09-30T05:45:12.213Z,101695.81
2018-09-30T05:47:40.277Z,101705.38
2018-09-30T05:50:08.353Z,101703.78
2018-09-30T05:52:36.465Z,101703.25
2018-09-30T05:55:04.541Z,101704.30
2018-09-30T05:57:32.646Z,101696.01
2018-09-30T06:00:00.725Z,101696.23
2018-09-30T06:02:28.796Z,101694.13
2018-09-30T06:04:56.864Z,101696.45
2018-09-30T06:07:24.945Z,101696.55
2018-09-30T06:09:53.009Z,101699.44
2018-09-30T06:12:21.084Z,101692.27
2018-09-30T06:14:49.155Z,101695.02
2018-09-30T06:17:17.273Z,101687.29
2018-09-30T06:19:45.364Z,101686.73
2018-09-30T06:22:13.440Z,101683.47
2018-09-30T06:24:41.508Z,101683.73
2018-09-30T06:27:09.585Z,101674.86
2018-09-30T06:29:37.865Z,101671.81
2018-09-30T06:32:06.012Z,101673.95
2018-09-30T06:34:34.032Z,101672.25
2018-09-30T06:37:02.158Z,101669.39
2018-09-30T06:39:30.197Z,101669.02
2018-09-30T06:41:58.277Z,101677.50
2018-09-30T06:44:26.366Z,101669.67
2018-09-30T06:46:54.479Z,101661.57
2018-09-30T06:49:22.621Z,101665.39
2018-09-30T06:51:50.691Z,101676.16
2018-09-30T06:54:18.753Z,101663.41
2018-09-30T06:56:46.825Z,101663.09
2018-09-30T06:59:14.999Z,101664.66
2018-09-30T07:01:43.098Z,101675.34
2018-09-30T07:04:11.152Z,101674.97
2018-09-30T07:06:39.237Z,101679.33
2018-09-30T07:09:07.991Z,101679.06
2018-09-30T07:11:36.367Z,101685.37
2018-09-30T07:14:04.502Z,101680.77
2018-09-30T07:16:32.838Z,101679.66
2018-09-30T07:19:00.921Z,101665.88
2018-09-30T07:21:28.995Z,101656.77
2018-09-30T07:23:57.056Z,101652.78
2018-09-30T07:26:25.142Z,101653.59
2018-09-30T07:28:53.212Z,101647.50
2018-09-30T07:31:21.300Z,101646.08
2018-09-30T07:33:49.402Z,101642.59
2018-09-30T07:36:17.493Z,101642.85
2018-09-30T07:38:45.557Z,101640.74
2018-09-30T07:41:13.633Z,101637.64
2018-09-30T07:43:41.737Z,101645.97
2018-09-30T07:46:09.793Z,101641.18
2018-09-30T07:48:37.889Z,101647.63
2018-09-30T07:51:05.942Z,101645.12
2018-09-30T07:53:34.018Z,101647.09
2018-09-30T07:56:02.114Z,101648.85
2018-09-30T07:58:30.186Z,101643.84
2018-09-30T08:00:58.260Z,101644.44
2018-09-30T08:03:26.358Z,101649.91
2018-09-30T08:05:54.426Z,101647.48
2018-09-30T08:08:22.497Z,101647.00
2018-09-30T08:10:50.774Z,101642.56
2018-09-30T08:13:18.888Z,101638.49
2018-09-30T08:15:47.429Z,101640.95
2018-09-30T08:18:15.597Z,101643.95
2018-09-30T08:20:43.656Z,101644.67
2018-09-30T08:23:11.734Z,101643.95
2018-09-30T08:25:39.802Z,101634.66
2018-09-30T08:28:07.889Z,101637.70
2018-09-30T08:30:36.011Z,101640.94
2018-09-30T08:33:04.057Z,101635.68
2018-09-30T08:35:32.120Z,101639.06
2018-09-30T08:38:05.553Z,101635.89
2018-09-30T08:40:39.109Z,101642.02
2018-09-30T08:43:07.178Z,101637.00
2018-09-30T08:45:35.257Z,101634.45
2018-09-30T08:48:03.347Z,101632.73
2018-09-30T08:50:31.410Z,101622.76
2018-09-30T08:52:59.468Z,101619.95
2018-09-30T08:55:27.547Z,101633.84
2018-09-30T08:57:55.625Z,101631.38
2018-09-30T09:00:23.687Z,101634.51
2018-09-30T09:02:51.753Z,101628.88
2018-09-30T09:05:19.816Z,101627.75
2018-09-30T09:07:47.901Z,101623.67
2018-09-30T09:10:15.957Z,101618.12
2018-09-30T09:12:44.120Z,101618.47
2018-09-30T09:15:12.198Z,101618.48
2018-09-30T09:17:40.266Z,101611.42
2018-09-30T09:20:08.343Z,101615.97
2018-09-30T09:22:36.448Z,101614.01
2018-09-30T09:25:04.749Z,101609.83
2018-09-30T09:27:32.813Z,101610.97
2018-09-30T09:30:00.893Z,101599.83
2018-09-30T09:32:28.989Z,101593.11
2018-09-30T09:34:57.214Z,101586.36
2018-09-30T09:37:25.224Z,101585.54
2018-09-30T09:39:53.341Z,101586.71
2018-09-30T09:42:21.396Z,101572.67
2018-09-30T09:44:49.549Z,101567.42
2018-09-30T09:47:17.613Z,101565.09
2018-09-30T09:49:45.677Z,101572.66
2018-09-30T09:52:13.729Z,101557.96
2018-09-30T09:54:41.811Z,101554.90
2018-09-30T09:57:09.893Z,101563.66
2018-09-30T09:59:37.958Z,101561.69
2018-09-30T10:02:06.008Z,101554.48
2018-09-30T10:04:34.097Z,101556.48
2018-09-30T10:07:02.150Z,101561.73
2018-09-30T10:09:30.350Z,101553.02
2018-09-30T10:11:58.446Z,101544.48
2018-09-30T10:14:26.536Z,101541.84
2018-09-30T10:16:54.646Z,101539.25
2018-09-30T10:19:22.738Z,101538.14
2018-09-30T10:21:50.893Z,101536.34
2018-09-30T10:24:19.003Z,101534.23
2018-09-30T10:26:47.130Z,101524.94
2018-09-30T10:29:15.320Z,101520.10
2018-09-30T10:31:43.428Z,101517.30
2018-09-30T10:34:11.544Z,101519.77
2018-09-30T10:36:39.657Z,101513.68
2018-09-30T10:39:08.974Z,101512.59
2018-09-30T10:41:36.992Z,101510.64
2018-09-30T10:44:05.084Z,101514.23
2018-09-30T10:46:33.217Z,101508.88
2018-09-30T10:49:01.378Z,101502.81
2018-09-30T10:51:29.482Z,101497.31
2018-09-30T10:53:57.857Z,101489.42
2018-09-30T10:56:25.953Z,101480.36
2018-09-30T10:58:54.123Z,101481.81
2018-09-30T11:01:22.222Z,101482.86
2018-09-30T11:03:50.325Z,101470.72
2018-09-30T11:06:18.421Z,101467.71
2018-09-30T11:08:46.520Z,101459.82
2018-09-30T11:11:14.611Z,101459.39
2018-09-30T11:13:42.697Z,101459.23
2018-09-30T11:16:10.824Z,101461.59
2018-09-30T11:18:38.897Z,101459.73
2018-09-30T11:21:07.642Z,101456.70
2018-09-30T11:23:35.725Z,101453.48
2018-09-30T11:26:03.821Z,101453.81
2018-09-30T11:28:31.928Z,101448.27
2018-09-30T11:31:00.022Z,101438.28
2018-09-30T11:33:28.113Z,101442.71
2018-09-30T11:35:56.222Z,101442.98
2018-09-30T11:38:24.333Z,101426.66
2018-09-30T11:40:52.429Z,101428.61
2018-09-30T11:43:20.513Z,101419.67
2018-09-30T11:45:48.653Z,101431.03
2018-09-30T11:48:16.742Z,101428.11
2018-09-30T11:50:44.837Z,101423.02
2018-09-30T11:53:12.942Z,101415.80
2018-09-30T11:55:41.050Z,101419.27
2018-09-30T11:58:09.145Z,101408.14
2018-09-30T12:00:37.325Z,101405.40
2018-09-30T12:03:05.418Z,101398.05
2018-09-30T12:05:33.494Z,101392.15
2018-09-30T12:08:01.684Z,101392.20
2018-09-30T12:10:29.788Z,101392.89
2018-09-30T12:12:57.869Z,101389.54
2018-09-30T12:15:25.974Z,101394.86
2018-09-30T12:17:54.058Z,101378.78
2018-09-30T12:20:22.145Z,101382.03
2018-09-30T12:22:50.229Z,101373.69
2018-09-30T12:25:18.313Z,101370.66
2018-09-30T12:27:46.385Z,101374.55
2018-09-30T12:30:14.500Z,101368.51
2018-09-30T12:32:42.593Z,101368.84
2018-09-30T12:35:10.705Z,101368.12
2018-09-30T12:37:38.778Z,101357.78
2018-09-30T12:40:06.864Z,101355.11
2018-09-30T12:42:34.943Z,101348.58
2018-09-30T12:45:03.030Z,101346.70
2018-09-30T12:47:31.116Z,101342.05
2018-09-30T12:49:59.234Z,101342.63
2018-09-30T12:52:27.331Z,101335.84
2018-09-30T12:54:55.426Z,101329.34
2018-09-30T12:57:23.543Z,101339.61
2018-09-30T12:59:51.660Z,101337.47
2018-09-30T13:02:19.725Z,101332.12
2018-09-30T13:04:47.816Z,101328.96
2018-09-30T13:07:15.906Z,101331.96
2018-09-30T13:09:43.980Z,101326.73
2018-09-30T13:12:13.762Z,101329.31
2018-09-30T13:14:42.642Z,101325.17
2018-09-30T13:17:10.736Z,101329.88
2018-09-30T13:19:38.870Z,101329.94
2018-09-30T13:22:06.994Z,101332.02
2018-09-30T13:24:35.084Z,101317.55
2018-09-30T13:27:03.161Z,101314.55
2018-09-30T13:29:31.315Z,101312.34
2018-09-30T13:31:59.393Z,101313.99
2018-09-30T13:34:27.493Z,101317.39
2018-09-30T13:36:55.576Z,101309.61
2018-09-30T13:39:23.634Z,101306.91
2018-09-30T13:41:51.717Z,101310.41
2018-09-30T13:44:19.781Z,101302.06
2018-09-30T13:46:47.849Z,101297.66
2018-09-30T13:49:15.905Z,101294.21
2018-09-30T13:51:43.986Z,101303.97
2018-09-30T13:54:12.053Z,101302.05
2018-09-30T13:56:40.133Z,101294.87
2018-09-30T13:59:08.197Z,101293.16
2018-09-30T14:01:36.273Z,101297.45
2018-09-30T14:04:04.353Z,101296.16
2018-09-30T14:06:32.457Z,101294.06
2018-09-30T14:09:00.593Z,101289.98
2018-09-30T14:11:28.674Z,101295.35
2018-09-30T14:13:56.738Z,101297.07
2018-09-30T14:16:24.824Z,101292.37
2018-09-30T14:18:52.897Z,101289.09
2018-09-30T14:21:21.067Z,101288.27
2018-09-30T14:23:49.145Z,101286.59
2018-09-30T14:26:17.241Z,101287.34
2018-09-30T14:28:45.317Z,101278.31
2018-09-30T14:31:13.402Z,101275.50
2018-09-30T14:33:41.478Z,101274.44
2018-09-30T14:36:09.581Z,101275.36
2018-09-30T14:38:37.642Z,101274.52
2018-09-30T14:41:05.720Z,101287.70
2018-09-30T14:43:33.793Z,101272.92
2018-09-30T14:46:01.957Z,101281.89
2018-09-30T14:48:30.055Z,101271.23
2018-09-30T14:50:58.105Z,101276.77
2018-09-30T14:53:26.172Z,101271.45
2018-09-30T14:55:54.241Z,101277.58
2018-09-30T14:58:22.318Z,101273.69
2018-09-30T15:00:50.381Z,101274.79
2018-09-30T15:03:18.507Z,101270.86
2018-09-30T15:05:46.833Z,101268.80
2018-09-30T15:08:14.994Z,101273.23
2018-09-30T15:10:43.052Z,101268.60
2018-09-30T15:13:11.137Z,101265.88
2018-09-30T15:15:39.271Z,101256.93
2018-09-30T15:18:07.347Z,101258.25
2018-09-30T15:20:35.409Z,101256.61
2018-09-30T15:23:03.486Z,101250.27
2018-09-30T15:25:31.557Z,101245.10
2018-09-30T15:27:59.626Z,101248.88
2018-09-30T15:30:27.697Z,101246.77
2018-09-30T15:32:55.794Z,101235.63
2018-09-30T15:35:23.865Z,101237.19
2018-09-30T15:37:51.942Z,101240.52
2018-09-30T15:40:19.993Z,101239.00
2018-09-30T15:42:48.074Z,101229.30
2018-09-30T15:45:16.133Z,101228.14
2018-09-30T15:47:44.201Z,101235.13
2018-09-30T15:50:12.269Z,101236.30
2018-09-30T15:52:40.341Z,101243.15
2018-09-30T15:55:08.393Z,101238.36
2018-09-30T15:57:36.474Z,101232.20
2018-09-30T16:00:04.537Z,101241.95
2018-09-30T16:02:32.611Z,101237.98
2018-09-30T16:05:00.686Z,101237.98
2018-09-30T16:07:28.749Z,101234.14
2018-09-30T16:09:56.805Z,101232.11
2018-09-30T16:12:24.927Z,101239.48
2018-09-30T16:14:52.990Z,101237.66
2018-09-30T16:17:21.064Z,101237.57
2018-09-30T16:19:49.145Z,101232.30
2018-09-30T16:22:17.217Z,101233.42
2018-09-30T16:24:45.378Z,101227.77
2018-09-30T16:27:13.437Z,101234.09
2018-09-30T16:29:41.513Z,101242.05
2018-09-30T16:32:09.682Z,101243.36
2018-09-30T16:34:37.749Z,101235.73
2018-09-30T16:37:05.833Z,101234.63
2018-09-30T16:39:33.905Z,101232.59
2018-09-30T16:42:01.981Z,101233.32
2018-09-30T16:44:30.061Z,101237.46
2018-09-30T16:46:58.213Z,101237.55
2018-09-30T16:49:26.281Z,101232.63
2018-09-30T16:51:54.337Z,101228.31
2018-09-30T16:54:22.425Z,101223.39
2018-09-30T16:56:50.620Z,101223.47
2018-09-30T16:59:18.677Z,101229.28
2018-09-30T17:01:46.730Z,101238.56
2018-09-30T17:04:14.797Z,101240.17
2018-09-30T17:06:42.931Z,101242.59
2018-09-30T17:09:10.948Z,101242.43
2018-09-30T17:11:39.009Z,101247.74
2018-09-30T17:14:07.929Z,101247.41
2018-09-30T17:16:35.982Z,101253.27
2018-09-30T17:19:04.108Z,101245.70
2018-09-30T17:21:32.173Z,101249.50
2018-09-30T17:24:00.281Z,101254.13
2018-09-30T17:26:28.338Z,101262.11
2018-09-30T17:28:56.421Z,101259.14
2018-09-30T17:31:24.574Z,101258.75
2018-09-30T17:33:52.684Z,101259.98
2018-09-30T17:36:20.749Z,101258.97
2018-09-30T17:38:48.825Z,101253.45
2018-09-30T17:41:16.894Z,101257.47
2018-09-30T17:43:45.034Z,101256.12
2018-09-30T17:46:13.046Z,101247.34
2018-09-30T17:48:41.117Z,101252.33
2018-09-30T17:51:09.202Z,101255.98
2018-09-30T17:53:37.274Z,101251.63
2018-09-30T17:56:05.713Z,101243.06
2018-09-30T17:58:33.791Z,101247.85
2018-09-30T18:01:01.888Z,101245.70
2018-09-30T18:03:29.977Z,101244.34
2018-09-30T18:05:58.053Z,101245.05
2018-09-30T18:08:26.122Z,101249.13
2018-09-30T18:10:54.268Z,101247.86
2018-09-30T18:13:22.325Z,101241.75
2018-09-30T18:15:50.398Z,101245.59
2018-09-30T18:18:18.546Z,101247.47
2018-09-30T18:20:46.661Z,101237.75
2018-09-30T18:23:14.751Z,101244.04
2018-09-30T18:25:42.820Z,101239.52
2018-09-30T18:28:11.214Z,101235.02
2018-09-30T18:30:39.318Z,101235.84
2018-09-30T18:33:07.517Z,101236.91
2018-09-30T18:35:35.597Z,101232.99
2018-09-30T18:38:03.681Z,101230.69
2018-09-30T18:40:39.865Z,101233.23
2018-09-30T18:43:07.973Z,101230.89
2018-09-30T18:45:36.069Z,101225.44
2018-09-30T18:48:04.156Z,101233.44
2018-09-30T18:50:32.233Z,101228.35
2018-09-30T18:53:00.329Z,101222.47
2018-09-30T18:55:28.396Z,101227.34
2018-09-30T18:57:56.521Z,101225.59
2018-09-30T19:00:24.607Z,101223.08
2018-09-30T19:02:52.693Z,101219.38
2018-09-30T19:05:20.798Z,101217.27
2018-09-30T19:07:48.897Z,101213.93
2018-09-30T19:10:16.981Z,101210.48
2018-09-30T19:12:45.086Z,101204.78
2018-09-30T19:15:13.235Z,101201.08
2018-09-30T19:17:41.277Z,101199.22
2018-09-30T19:20:09.353Z,101197.73
2018-09-30T19:22:37.465Z,101195.20
2018-09-30T19:25:05.557Z,101196.45
2018-09-30T19:27:33.593Z,101195.78
2018-09-30T19:30:01.725Z,101192.89
2018-09-30T19:32:29.780Z,101192.76
2018-09-30T19:34:57.893Z,101195.43
2018-09-30T19:37:25.966Z,101192.30
2018-09-30T19:39:54.049Z,101188.02
2018-09-30T19:42:22.118Z,101194.51
2018-09-30T19:44:50.186Z,101190.80
2018-09-30T19:47:18.263Z,101192.90
2018-09-30T19:49:46.344Z,101193.83
2018-09-30T19:52:14.420Z,101190.58
2018-09-30T19:54:42.538Z,101189.52
2018-09-30T19:57:10.600Z,101183.84
2018-09-30T19:59:38.676Z,101191.15
2018-09-30T20:02:07.185Z,101184.66
2018-09-30T20:04:35.265Z,101177.47
2018-09-30T20:07:03.353Z,101178.72
2018-09-30T20:09:31.452Z,101178.03
2018-09-30T20:11:59.533Z,101172.58
2018-09-30T20:14:27.619Z,101166.78
2018-09-30T20:16:55.692Z,101168.27
2018-09-30T20:19:23.766Z,101172.22
2018-09-30T20:21:51.840Z,101164.25
2018-09-30T20:24:19.937Z,101162.03
2018-09-30T20:26:48.047Z,101155.20
2018-09-30T20:29:16.104Z,101160.75
2018-09-30T20:31:44.177Z,101155.55
2018-09-30T20:34:12.295Z,101153.13
2018-09-30T20:36:40.394Z,101149.89
2018-09-30T20:39:08.473Z,101153.59
2018-09-30T20:41:36.545Z,101148.25
2018-09-30T20:44:04.621Z,101140.84
2018-09-30T20:46:32.760Z,101141.77
2018-09-30T20:49:00.847Z,101141.55
2018-09-30T20:51:28.920Z,101137.13
2018-09-30T20:53:56.977Z,101136.09
2018-09-30T20:56:25.057Z,101139.23
2018-09-30T20:58:53.117Z,101139.55
2018-09-30T21:01:21.201Z,101139.44
2018-09-30T21:03:49.277Z,101136.77
2018-09-30T21:06:23.785Z,101135.61
2018-09-30T21:08:51.850Z,101141.27
2018-09-30T21:11:19.926Z,101142.76
2018-09-30T21:13:47.990Z,101141.25
2018-09-30T21:16:16.058Z,101136.97
2018-09-30T21:18:44.354Z,101136.04
2018-09-30T21:21:12.401Z,101133.72
2018-09-30T21:23:40.509Z,101136.59
2018-09-30T21:26:08.589Z,101132.88
2018-09-30T21:28:36.753Z,101129.17
2018-09-30T21:31:04.885Z,101128.48
2018-09-30T21:33:32.976Z,101126.62
2018-09-30T21:36:01.082Z,101128.68
2018-09-30T21:38:29.141Z,101126.61
2018-09-30T21:40:57.277Z,101128.31
2018-09-30T21:43:25.332Z,101129.83
2018-09-30T21:45:53.402Z,101129.58
2018-09-30T21:48:21.791Z,101130.74
2018-09-30T21:50:49.864Z,101130.84
2018-09-30T21:53:18.333Z,101123.66
2018-09-30T21:55:46.429Z,101117.33
2018-09-30T21:58:14.505Z,101116.25
2018-09-30T22:00:48.628Z,101112.44
2018-09-30T22:03:16.777Z,101123.53
2018-09-30T22:05:44.841Z,101115.00
2018-09-30T22:08:12.931Z,101113.83
2018-09-30T22:10:42.089Z,101109.45
2018-09-30T22:13:10.985Z,101102.52
2018-09-30T22:15:39.066Z,101105.29
2018-09-30T22:18:07.145Z,101100.88
2018-09-30T22:20:35.271Z,101096.97
2018-09-30T22:23:03.350Z,101093.59
2018-09-30T22:25:31.424Z,101091.42
2018-09-30T22:27:59.713Z,101093.59
2018-09-30T22:30:27.796Z,101091.07
2018-09-30T22:32:55.877Z,101087.59
2018-09-30T22:35:23.961Z,101090.63
2018-09-30T22:37:52.046Z,101080.56
2018-09-30T22:40:20.211Z,101083.80
2018-09-30T22:42:48.230Z,101078.51
2018-09-30T22:45:16.285Z,101085.78
2018-09-30T22:47:44.358Z,101079.78
2018-09-30T22:50:12.424Z,101083.02
2018-09-30T22:52:40.492Z,101075.77
2018-09-30T22:55:08.553Z,101068.95
2018-09-30T22:57:36.626Z,101065.81
2018-09-30T23:00:05.322Z,101070.09
2018-09-30T23:02:33.390Z,101070.81
2018-09-30T23:05:01.446Z,101059.92
2018-09-30T23:07:29.517Z,101051.28
2018-09-30T23:09:57.577Z,101055.55
2018-09-30T23:12:25.653Z,101054.38
2018-09-30T23:14:53.717Z,101048.05
2018-09-30T23:17:21.786Z,101047.23
2018-09-30T23:19:49.841Z,101050.22
2018-09-30T23:22:17.911Z,101051.04
2018-09-30T23:24:45.972Z,101053.25
2018-09-30T23:27:14.057Z,101055.20
2018-09-30T23:29:42.113Z,101060.65
2018-09-30T23:32:10.185Z,101056.38
2018-09-30T23:34:38.305Z,101065.17
2018-09-30T23:37:06.494Z,101067.02
2018-09-30T23:39:34.558Z,101065.28
2018-09-30T23:42:02.633Z,101058.56
2018-09-30T23:44:30.699Z,101054.53
2018-09-30T23:46:58.761Z,101048.84
2018-09-30T23:49:26.841Z,101052.55
2018-09-30T23:51:54.904Z,101050.84
2018-09-30T23:54:22.981Z,101045.75
2018-09-30T23:56:51.080Z,101044.83
2018-09-30T23:59:19.222Z,101043.30
